createdAt,value
2018-06-30T00:00:06.757Z,5.00
2018-06-30T00:02:38.096Z,5.53
2018-06-30T00:05:08.839Z,5.30
2018-06-30T00:07:39.457Z,4.87
2018-06-30T00:10:10.118Z,5.07
2018-06-30T00:12:40.998Z,5.00
2018-06-30T00:15:11.686Z,4.67
2018-06-30T00:17:42.670Z,5.07
2018-06-30T00:20:12.772Z,4.70
2018-06-30T00:22:43.678Z,4.83
2018-06-30T00:25:14.621Z,5.20
2018-06-30T00:27:45.297Z,4.83
2018-06-30T00:30:16.026Z,4.40
2018-06-30T00:32:46.745Z,4.33
2018-06-30T00:35:17.446Z,4.30
2018-06-30T00:37:48.337Z,4.80
2018-06-30T00:40:18.981Z,4.47
2018-06-30T00:42:49.781Z,5.00
2018-06-30T00:45:20.530Z,4.83
2018-06-30T00:47:51.177Z,4.50
2018-06-30T00:50:21.897Z,4.50
2018-06-30T00:52:52.625Z,4.57
2018-06-30T00:55:23.422Z,4.47
2018-06-30T00:57:54.141Z,4.10
2018-06-30T01:00:24.709Z,4.33
2018-06-30T01:02:55.537Z,4.83
2018-06-30T01:05:26.169Z,5.03
2018-06-30T01:07:57.265Z,4.50
2018-06-30T01:10:27.921Z,4.73
2018-06-30T01:12:58.877Z,4.73
2018-06-30T01:15:29.396Z,4.70
2018-06-30T01:18:00.082Z,5.03
2018-06-30T01:20:30.747Z,4.93
2018-06-30T01:23:01.521Z,4.10
2018-06-30T01:25:32.269Z,4.63
2018-06-30T01:28:03.021Z,4.60
2018-06-30T01:30:33.112Z,4.63
2018-06-30T01:33:03.854Z,5.07
2018-06-30T01:35:34.533Z,5.17
2018-06-30T01:38:05.216Z,4.77
2018-06-30T01:40:35.412Z,4.90
2018-06-30T01:43:06.416Z,4.67
2018-06-30T01:45:37.157Z,4.80
2018-06-30T01:48:08.093Z,4.63
2018-06-30T01:50:38.785Z,5.40
2018-06-30T01:53:09.786Z,5.07
2018-06-30T01:55:40.406Z,4.57
2018-06-30T01:58:11.022Z,4.83
2018-06-30T02:00:42.030Z,4.13
2018-06-30T02:03:12.169Z,5.00
2018-06-30T02:05:42.866Z,4.47
2018-06-30T02:08:13.653Z,4.77
2018-06-30T02:10:44.305Z,4.67
2018-06-30T02:13:15.039Z,4.73
2018-06-30T02:15:45.791Z,4.80
2018-06-30T02:18:16.532Z,3.83
2018-06-30T02:20:47.282Z,4.40
2018-06-30T02:23:18.062Z,4.93
2018-06-30T02:25:48.633Z,4.77
2018-06-30T02:28:19.614Z,4.60
2018-06-30T02:30:50.261Z,5.00
2018-06-30T02:33:21.111Z,4.20
2018-06-30T02:35:51.782Z,4.37
2018-06-30T02:38:22.404Z,4.77
2018-06-30T02:40:52.995Z,5.33
2018-06-30T02:43:23.969Z,5.20
2018-06-30T02:45:54.763Z,4.47
2018-06-30T02:48:25.593Z,4.40
2018-06-30T02:50:56.229Z,4.33
2018-06-30T02:53:26.970Z,4.67
2018-06-30T02:55:57.683Z,4.80
2018-06-30T02:58:28.589Z,4.47
2018-06-30T03:00:59.484Z,3.80
2018-06-30T03:03:30.104Z,4.60
2018-06-30T03:06:00.795Z,4.90
2018-06-30T03:08:31.357Z,4.30
2018-06-30T03:11:02.014Z,4.37
2018-06-30T03:13:32.786Z,4.47
2018-06-30T03:16:03.373Z,4.10
2018-06-30T03:18:34.081Z,5.10
2018-06-30T03:21:04.806Z,4.20
2018-06-30T03:23:35.467Z,4.40
2018-06-30T03:26:06.050Z,4.37
2018-06-30T03:28:36.825Z,4.60
2018-06-30T03:31:07.680Z,4.63
2018-06-30T03:33:38.997Z,4.47
2018-06-30T03:36:09.561Z,5.03
2018-06-30T03:38:40.506Z,4.87
2018-06-30T03:41:11.045Z,5.20
2018-06-30T03:43:41.793Z,4.63
2018-06-30T03:46:12.543Z,5.33
2018-06-30T03:48:43.369Z,4.60
2018-06-30T03:51:13.918Z,4.90
2018-06-30T03:53:44.652Z,6.37
2018-06-30T03:56:15.321Z,10.07
2018-06-30T03:58:46.377Z,19.93
2018-06-30T04:01:17.185Z,31.20
2018-06-30T04:03:48.001Z,31.53
2018-06-30T04:06:18.569Z,22.00
2018-06-30T04:08:49.390Z,14.90
2018-06-30T04:11:20.018Z,7.77
2018-06-30T04:13:50.706Z,6.00
2018-06-30T04:16:21.377Z,6.03
2018-06-30T04:18:52.229Z,5.83
2018-06-30T04:21:22.957Z,5.50
2018-06-30T04:23:53.845Z,5.83
2018-06-30T04:26:24.629Z,5.43
2018-06-30T04:28:55.433Z,5.27
2018-06-30T04:31:26.201Z,5.27
2018-06-30T04:33:57.037Z,5.30
2018-06-30T04:36:27.730Z,5.40
2018-06-30T04:38:58.614Z,5.23
2018-06-30T04:41:29.276Z,5.53
2018-06-30T04:44:00.154Z,5.27
2018-06-30T04:46:30.796Z,5.30
2018-06-30T04:49:01.593Z,4.90
2018-06-30T04:51:32.326Z,4.47
2018-06-30T04:54:03.049Z,5.83
2018-06-30T04:56:33.686Z,5.17
2018-06-30T04:59:04.431Z,5.07
2018-06-30T05:01:34.897Z,5.17
2018-06-30T05:04:05.781Z,5.53
2018-06-30T05:06:36.481Z,5.50
2018-06-30T05:09:09.437Z,5.50
2018-06-30T05:11:40.145Z,4.93
2018-06-30T05:14:10.858Z,4.03
2018-06-30T05:16:41.477Z,5.03
2018-06-30T05:19:12.157Z,4.70
2018-06-30T05:21:42.806Z,5.00
2018-06-30T05:24:13.633Z,5.00
2018-06-30T05:26:44.273Z,4.70
2018-06-30T05:29:14.969Z,4.50
2018-06-30T05:31:45.641Z,4.63
2018-06-30T05:34:16.324Z,4.10
2018-06-30T05:36:47.102Z,4.33
2018-06-30T05:39:17.917Z,4.63
2018-06-30T05:41:48.637Z,4.87
2018-06-30T05:44:19.485Z,4.63
2018-06-30T05:46:50.158Z,4.33
2018-06-30T05:49:20.981Z,4.87
2018-06-30T05:51:51.617Z,4.20
2018-06-30T05:54:22.621Z,4.37
2018-06-30T05:56:53.176Z,4.10
2018-06-30T05:59:24.327Z,4.47
2018-06-30T06:01:54.957Z,5.50
2018-06-30T06:04:25.697Z,5.13
2018-06-30T06:06:56.321Z,4.47
2018-06-30T06:09:27.564Z,4.80
2018-06-30T06:11:58.254Z,4.90
2018-06-30T06:14:29.043Z,5.20
2018-06-30T06:16:59.665Z,4.30
2018-06-30T06:19:30.434Z,4.47
2018-06-30T06:22:01.036Z,5.47
2018-06-30T06:24:31.994Z,5.83
2018-06-30T06:27:02.518Z,4.83
2018-06-30T06:29:33.290Z,5.00
2018-06-30T06:32:03.449Z,4.47
2018-06-30T06:34:34.145Z,4.77
2018-06-30T06:37:05.002Z,4.93
2018-06-30T06:39:35.613Z,5.00
2018-06-30T06:42:06.441Z,4.27
2018-06-30T06:44:37.493Z,6.37
2018-06-30T06:47:08.161Z,5.73
2018-06-30T06:49:38.916Z,5.87
2018-06-30T06:52:09.541Z,6.07
2018-06-30T06:54:40.475Z,5.63
2018-06-30T06:57:11.101Z,6.80
2018-06-30T06:59:41.917Z,6.60
2018-06-30T07:02:13.073Z,7.13
2018-06-30T07:04:43.742Z,6.33
2018-06-30T07:07:14.457Z,7.03
2018-06-30T07:09:45.206Z,7.20
2018-06-30T07:12:15.903Z,7.43
2018-06-30T07:14:46.638Z,7.70
2018-06-30T07:17:17.282Z,7.20
2018-06-30T07:19:48.183Z,9.60
2018-06-30T07:22:18.885Z,12.03
2018-06-30T07:24:49.617Z,7.77
2018-06-30T07:27:20.214Z,6.70
2018-06-30T07:29:50.882Z,8.47
2018-06-30T07:32:21.655Z,7.60
2018-06-30T07:34:52.416Z,6.90
2018-06-30T07:37:23.106Z,6.87
2018-06-30T07:39:53.841Z,7.17
2018-06-30T07:42:24.505Z,8.00
2018-06-30T07:44:55.310Z,7.40
2018-06-30T07:47:26.022Z,8.13
2018-06-30T07:49:56.854Z,7.77
2018-06-30T07:52:27.569Z,6.60
2018-06-30T07:54:58.248Z,6.93
2018-06-30T07:57:28.909Z,5.63
2018-06-30T07:59:59.962Z,5.70
2018-06-30T08:02:30.581Z,4.70
2018-06-30T08:05:01.307Z,5.20
2018-06-30T08:07:32.010Z,5.00
2018-06-30T08:10:02.770Z,5.77
2018-06-30T08:12:33.463Z,3.17
2018-06-30T08:15:04.322Z,3.33
2018-06-30T08:17:34.834Z,4.83
2018-06-30T08:20:05.701Z,5.40
2018-06-30T08:22:36.364Z,5.20
2018-06-30T08:25:07.697Z,4.47
2018-06-30T08:27:38.325Z,3.60
2018-06-30T08:30:09.283Z,3.83
2018-06-30T08:32:39.812Z,4.23
2018-06-30T08:35:10.522Z,4.50
2018-06-30T08:37:41.214Z,4.60
2018-06-30T08:40:12.002Z,5.10
2018-06-30T08:42:42.710Z,4.87
2018-06-30T08:45:13.502Z,5.43
2018-06-30T08:47:44.362Z,5.67
2018-06-30T08:50:15.099Z,6.03
2018-06-30T08:52:45.761Z,5.40
2018-06-30T08:55:16.732Z,5.50
2018-06-30T08:57:47.329Z,4.10
2018-06-30T09:00:17.958Z,4.63
2018-06-30T09:02:48.597Z,5.47
2018-06-30T09:05:19.474Z,5.30
2018-06-30T09:07:50.222Z,5.40
2018-06-30T09:10:21.098Z,5.13
2018-06-30T09:12:51.682Z,4.80
2018-06-30T09:15:22.598Z,5.30
2018-06-30T09:17:53.202Z,4.63
2018-06-30T09:20:24.006Z,6.17
2018-06-30T09:22:54.689Z,5.60
2018-06-30T09:25:25.721Z,5.77
2018-06-30T09:27:56.222Z,6.60
2018-06-30T09:30:27.021Z,5.80
2018-06-30T09:32:57.601Z,5.27
2018-06-30T09:35:28.309Z,4.60
2018-06-30T09:37:59.097Z,5.00
2018-06-30T09:40:30.065Z,4.70
2018-06-30T09:43:00.317Z,5.27
2018-06-30T09:45:31.206Z,5.27
2018-06-30T09:48:02.133Z,4.70
2018-06-30T09:50:33.101Z,4.73
2018-06-30T09:53:03.787Z,4.97
2018-06-30T09:55:34.381Z,4.80
2018-06-30T09:58:05.058Z,4.00
2018-06-30T10:00:40.667Z,4.20
2018-06-30T10:03:11.549Z,4.50
2018-06-30T10:05:42.433Z,4.27
2018-06-30T10:08:12.673Z,4.10
2018-06-30T10:10:43.341Z,4.53
2018-06-30T10:13:13.948Z,4.17
2018-06-30T10:15:44.658Z,4.07
2018-06-30T10:18:15.249Z,3.80
2018-06-30T10:20:45.954Z,3.20
2018-06-30T10:23:16.638Z,3.20
2018-06-30T10:25:47.377Z,3.30
2018-06-30T10:28:18.209Z,3.40
2018-06-30T10:30:48.913Z,3.63
2018-06-30T10:33:19.636Z,3.03
2018-06-30T10:35:50.414Z,3.57
2018-06-30T10:38:21.137Z,3.63
2018-06-30T10:40:51.465Z,3.67
2018-06-30T10:43:22.197Z,3.10
2018-06-30T10:45:52.970Z,3.13
2018-06-30T10:48:23.634Z,3.10
2018-06-30T10:50:54.385Z,4.53
2018-06-30T10:53:25.455Z,2.73
2018-06-30T10:55:56.325Z,3.20
2018-06-30T10:58:27.017Z,3.67
2018-06-30T11:00:57.986Z,5.33
2018-06-30T11:03:28.536Z,5.23
2018-06-30T11:05:59.709Z,5.70
2018-06-30T11:08:30.408Z,6.10
2018-06-30T11:11:01.245Z,5.13
2018-06-30T11:13:31.878Z,4.33
2018-06-30T11:16:02.970Z,4.63
2018-06-30T11:18:33.693Z,4.27
2018-06-30T11:21:04.552Z,4.10
2018-06-30T11:23:35.213Z,4.17
2018-06-30T11:26:06.195Z,3.90
2018-06-30T11:28:36.902Z,4.37
2018-06-30T11:31:07.622Z,4.90
2018-06-30T11:33:38.361Z,5.00
2018-06-30T11:36:09.129Z,4.30
2018-06-30T11:38:39.932Z,4.80
2018-06-30T11:41:10.612Z,4.57
2018-06-30T11:43:41.316Z,4.90
2018-06-30T11:46:11.989Z,4.60
2018-06-30T11:48:42.757Z,4.33
2018-06-30T11:51:13.555Z,5.00
2018-06-30T11:53:44.378Z,4.47
2018-06-30T11:56:15.179Z,4.40
2018-06-30T11:58:45.874Z,3.40
2018-06-30T12:01:16.778Z,3.43
2018-06-30T12:03:47.466Z,3.53
2018-06-30T12:06:18.249Z,3.07
2018-06-30T12:08:49.155Z,3.30
2018-06-30T12:11:19.958Z,3.80
2018-06-30T12:13:50.593Z,3.23
2018-06-30T12:16:21.785Z,3.50
2018-06-30T12:18:52.421Z,4.00
2018-06-30T12:21:23.530Z,4.13
2018-06-30T12:23:54.093Z,3.87
2018-06-30T12:26:24.836Z,3.93
2018-06-30T12:28:55.078Z,4.20
2018-06-30T12:31:25.797Z,4.60
2018-06-30T12:33:56.469Z,4.97
2018-06-30T12:36:27.313Z,4.70
2018-06-30T12:38:58.041Z,4.63
2018-06-30T12:41:28.666Z,4.67
2018-06-30T12:43:59.350Z,4.63
2018-06-30T12:46:30.321Z,5.03
2018-06-30T12:49:01.037Z,4.87
2018-06-30T12:51:32.043Z,5.50
2018-06-30T12:54:02.759Z,5.00
2018-06-30T12:56:33.486Z,4.97
2018-06-30T12:59:04.421Z,4.87
2018-06-30T13:01:35.141Z,4.33
2018-06-30T13:04:06.370Z,5.20
2018-06-30T13:06:37.082Z,5.37
2018-06-30T13:09:11.934Z,4.77
2018-06-30T13:11:42.869Z,4.60
2018-06-30T13:14:13.547Z,5.17
2018-06-30T13:16:44.358Z,4.90
2018-06-30T13:19:15.014Z,6.23
2018-06-30T13:21:45.855Z,5.13
2018-06-30T13:24:16.585Z,5.20
2018-06-30T13:26:47.401Z,5.07
2018-06-30T13:29:18.157Z,5.13
2018-06-30T13:31:48.969Z,5.07
2018-06-30T13:34:19.563Z,5.10
2018-06-30T13:36:50.389Z,5.87
2018-06-30T13:39:21.130Z,5.33
2018-06-30T13:41:51.938Z,5.60
2018-06-30T13:44:22.643Z,5.50
2018-06-30T13:46:53.513Z,5.10
2018-06-30T13:49:24.114Z,5.40
2018-06-30T13:51:54.994Z,4.87
2018-06-30T13:54:25.685Z,4.70
2018-06-30T13:56:56.554Z,5.10
2018-06-30T13:59:27.258Z,5.20
2018-06-30T14:01:57.849Z,4.83
2018-06-30T14:04:28.614Z,4.77
2018-06-30T14:06:59.126Z,4.40
2018-06-30T14:09:29.754Z,4.60
2018-06-30T14:12:00.516Z,4.47
2018-06-30T14:14:31.133Z,4.67
2018-06-30T14:17:01.984Z,5.30
2018-06-30T14:19:32.719Z,4.30
2018-06-30T14:22:03.693Z,4.77
2018-06-30T14:24:34.351Z,4.30
2018-06-30T14:27:05.093Z,4.90
2018-06-30T14:29:35.677Z,4.30
2018-06-30T14:32:06.464Z,4.90
2018-06-30T14:34:37.157Z,5.10
2018-06-30T14:37:07.942Z,5.20
2018-06-30T14:39:38.569Z,5.07
2018-06-30T14:42:09.425Z,5.40
2018-06-30T14:44:40.072Z,4.57
2018-06-30T14:47:11.098Z,4.57
2018-06-30T14:49:42.000Z,4.40
2018-06-30T14:52:12.761Z,5.27
2018-06-30T14:54:43.447Z,4.83
2018-06-30T14:57:14.166Z,4.60
2018-06-30T14:59:44.765Z,4.50
2018-06-30T15:02:15.515Z,4.40
2018-06-30T15:04:46.513Z,4.80
2018-06-30T15:07:17.217Z,4.90
2018-06-30T15:09:47.893Z,5.60
2018-06-30T15:12:18.714Z,4.80
2018-06-30T15:14:49.363Z,5.23
2018-06-30T15:17:20.242Z,7.10
2018-06-30T15:19:50.920Z,4.50
2018-06-30T15:22:21.819Z,4.70
2018-06-30T15:24:52.454Z,4.77
2018-06-30T15:27:23.020Z,4.73
2018-06-30T15:29:53.653Z,4.63
2018-06-30T15:32:24.530Z,4.70
2018-06-30T15:34:54.528Z,4.73
2018-06-30T15:37:25.639Z,4.77
2018-06-30T15:39:56.444Z,5.07
2018-06-30T15:42:27.565Z,4.53
2018-06-30T15:44:58.318Z,4.67
2018-06-30T15:47:29.241Z,4.77
2018-06-30T15:49:59.948Z,4.43
2018-06-30T15:52:30.672Z,4.40
2018-06-30T15:55:01.178Z,4.27
2018-06-30T15:57:32.130Z,4.47
2018-06-30T16:00:02.801Z,4.10
2018-06-30T16:02:33.838Z,4.40
2018-06-30T16:05:04.551Z,4.57
2018-06-30T16:07:35.226Z,4.33
2018-06-30T16:10:05.961Z,4.63
2018-06-30T16:12:36.697Z,4.53
2018-06-30T16:15:07.624Z,3.93
2018-06-30T16:17:38.814Z,3.93
2018-06-30T16:20:09.509Z,4.20
2018-06-30T16:22:40.090Z,4.50
2018-06-30T16:25:10.716Z,4.77
2018-06-30T16:27:41.594Z,4.43
2018-06-30T16:30:13.145Z,4.77
2018-06-30T16:32:44.161Z,5.67
2018-06-30T16:35:14.876Z,4.63
2018-06-30T16:37:46.506Z,5.10
2018-06-30T16:40:16.759Z,5.53
2018-06-30T16:42:47.397Z,5.47
2018-06-30T16:45:18.027Z,5.00
2018-06-30T16:47:48.739Z,5.60
2018-06-30T16:50:19.449Z,5.77
2018-06-30T16:52:50.209Z,5.60
2018-06-30T16:55:20.934Z,5.67
2018-06-30T16:57:51.881Z,5.80
2018-06-30T17:00:22.630Z,5.90
2018-06-30T17:02:53.466Z,5.23
2018-06-30T17:05:24.127Z,5.70
2018-06-30T17:07:54.962Z,4.90
2018-06-30T17:10:25.607Z,5.80
2018-06-30T17:12:56.537Z,5.40
2018-06-30T17:15:27.281Z,6.17
2018-06-30T17:17:58.298Z,5.60
2018-06-30T17:20:28.941Z,6.37
2018-06-30T17:22:59.926Z,6.20
2018-06-30T17:25:30.525Z,6.00
2018-06-30T17:28:01.449Z,6.30
2018-06-30T17:30:32.065Z,6.37
2018-06-30T17:33:02.861Z,6.13
2018-06-30T17:35:33.549Z,6.17
2018-06-30T17:38:04.273Z,6.20
2018-06-30T17:40:34.909Z,6.53
2018-06-30T17:43:05.774Z,6.57
2018-06-30T17:45:36.482Z,6.90
2018-06-30T17:48:07.360Z,6.87
2018-06-30T17:50:38.054Z,7.23
2018-06-30T17:53:08.842Z,7.50
2018-06-30T17:55:39.569Z,6.60
2018-06-30T17:58:10.331Z,7.07
2018-06-30T18:00:40.814Z,6.37
2018-06-30T18:03:11.613Z,6.60
2018-06-30T18:05:42.298Z,6.47
2018-06-30T18:08:13.229Z,7.40
2018-06-30T18:10:43.915Z,7.37
2018-06-30T18:13:14.629Z,7.00
2018-06-30T18:15:45.321Z,6.87
2018-06-30T18:18:16.162Z,6.70
2018-06-30T18:20:46.877Z,6.43
2018-06-30T18:23:17.753Z,6.10
2018-06-30T18:25:48.529Z,5.90
2018-06-30T18:28:19.213Z,7.20
2018-06-30T18:30:49.386Z,6.20
2018-06-30T18:33:20.401Z,6.30
2018-06-30T18:35:51.102Z,6.57
2018-06-30T18:38:21.873Z,6.40
2018-06-30T18:40:52.561Z,6.97
2018-06-30T18:43:23.429Z,7.73
2018-06-30T18:45:54.138Z,6.80
2018-06-30T18:48:24.865Z,7.50
2018-06-30T18:50:55.551Z,7.37
2018-06-30T18:53:26.550Z,7.13
2018-06-30T18:55:57.482Z,7.10
2018-06-30T18:58:28.385Z,7.30
2018-06-30T19:00:59.001Z,7.73
2018-06-30T19:03:29.769Z,7.33
2018-06-30T19:06:00.418Z,7.90
2018-06-30T19:08:31.287Z,6.83
2018-06-30T19:11:01.880Z,7.50
2018-06-30T19:13:32.694Z,7.33
2018-06-30T19:16:03.610Z,6.80
2018-06-30T19:18:34.539Z,6.87
2018-06-30T19:21:05.035Z,6.90
2018-06-30T19:23:35.761Z,7.00
2018-06-30T19:26:07.426Z,7.00
2018-06-30T19:28:39.136Z,6.80
2018-06-30T19:31:10.706Z,7.30
2018-06-30T19:33:41.490Z,7.00
2018-06-30T19:36:12.141Z,6.93
2018-06-30T19:38:42.915Z,7.30
2018-06-30T19:41:14.339Z,7.67
2018-06-30T19:43:45.341Z,7.50
2018-06-30T19:46:15.953Z,8.33
2018-06-30T19:48:47.619Z,8.00
2018-06-30T19:51:18.380Z,8.07
2018-06-30T19:53:49.105Z,8.53
2018-06-30T19:56:19.826Z,8.30
2018-06-30T19:58:50.681Z,9.47
2018-06-30T20:01:21.349Z,9.07
2018-06-30T20:03:52.214Z,9.50
2018-06-30T20:06:22.881Z,9.73
2018-06-30T20:08:53.614Z,10.43
2018-06-30T20:11:24.258Z,10.40
2018-06-30T20:13:55.489Z,10.17
2018-06-30T20:16:26.338Z,10.20
2018-06-30T20:18:57.033Z,10.50
2018-06-30T20:21:27.701Z,9.50
2018-06-30T20:23:58.525Z,10.30
2018-06-30T20:26:29.215Z,10.10
2018-06-30T20:28:59.869Z,10.37
2018-06-30T20:31:30.613Z,10.30
2018-06-30T20:34:01.510Z,10.77
2018-06-30T20:36:32.409Z,10.23
2018-06-30T20:39:03.294Z,10.30
2018-06-30T20:41:33.990Z,10.40
2018-06-30T20:44:04.879Z,10.93
2018-06-30T20:46:35.450Z,11.47
2018-06-30T20:49:06.346Z,11.57
2018-06-30T20:51:37.113Z,10.70
2018-06-30T20:54:07.983Z,10.70
2018-06-30T20:56:38.791Z,11.80
2018-06-30T20:59:09.506Z,13.17
2018-06-30T21:01:40.208Z,11.87
2018-06-30T21:04:11.150Z,12.77
2018-06-30T21:06:41.890Z,11.33
2018-06-30T21:09:13.119Z,12.20
2018-06-30T21:11:43.730Z,12.43
2018-06-30T21:14:14.409Z,11.93
2018-06-30T21:16:45.066Z,12.13
2018-06-30T21:19:16.062Z,11.63
2018-06-30T21:21:46.741Z,12.50
2018-06-30T21:24:17.880Z,13.07
2018-06-30T21:26:48.437Z,12.93
2018-06-30T21:29:19.147Z,13.10
2018-06-30T21:31:49.709Z,12.57
2018-06-30T21:34:20.521Z,12.03
2018-06-30T21:36:51.317Z,11.97
2018-06-30T21:39:22.026Z,12.20
2018-06-30T21:41:52.571Z,12.63
2018-06-30T21:44:23.292Z,13.07
2018-06-30T21:46:54.421Z,13.80
2018-06-30T21:49:25.174Z,13.20
2018-06-30T21:51:55.997Z,12.07
2018-06-30T21:54:26.648Z,11.97
2018-06-30T21:56:57.245Z,12.00
2018-06-30T21:59:28.045Z,11.47
2018-06-30T22:01:58.693Z,12.17
2018-06-30T22:04:29.482Z,12.10
2018-06-30T22:07:00.394Z,11.43
2018-06-30T22:09:31.054Z,12.10
2018-06-30T22:12:01.831Z,11.60
2018-06-30T22:14:32.518Z,12.07
2018-06-30T22:17:03.353Z,12.47
2018-06-30T22:19:34.021Z,11.07
2018-06-30T22:22:04.982Z,11.53
2018-06-30T22:24:35.542Z,11.93
2018-06-30T22:27:06.489Z,10.87
2018-06-30T22:29:37.072Z,11.10
2018-06-30T22:32:09.373Z,11.10
2018-06-30T22:34:40.062Z,11.33
2018-06-30T22:37:10.666Z,11.60
2018-06-30T22:39:57.399Z,11.27
2018-06-30T22:42:28.141Z,11.63
2018-06-30T22:44:58.753Z,11.80
2018-06-30T22:47:29.433Z,11.33
2018-06-30T22:50:00.178Z,11.27
2018-06-30T22:52:30.922Z,12.03
2018-06-30T22:55:01.470Z,12.00
2018-06-30T22:57:32.293Z,11.60
2018-06-30T23:00:03.013Z,11.57
2018-06-30T23:02:33.772Z,10.73
2018-06-30T23:05:04.554Z,11.90
2018-06-30T23:07:35.598Z,10.93
2018-06-30T23:10:06.474Z,11.77
2018-06-30T23:12:37.158Z,11.47
2018-06-30T23:15:08.391Z,11.83
2018-06-30T23:17:40.052Z,10.63
2018-06-30T23:20:10.676Z,11.73
2018-06-30T23:23:04.527Z,11.90
2018-06-30T23:25:35.749Z,11.50
2018-06-30T23:28:06.508Z,11.40
2018-06-30T23:30:37.256Z,10.97
2018-06-30T23:33:07.974Z,11.13
2018-06-30T23:35:38.433Z,10.43
2018-06-30T23:38:09.166Z,10.83
2018-06-30T23:40:39.842Z,10.97
2018-06-30T23:43:10.654Z,9.90
2018-06-30T23:45:41.414Z,10.83
2018-06-30T23:48:12.505Z,10.67
2018-06-30T23:50:43.134Z,10.23
2018-06-30T23:53:13.873Z,10.33
2018-06-30T23:55:44.598Z,10.47
2018-06-30T23:58:15.285Z,9.30
